createdAt,value
2017-06-16T00:00:27.196Z,12.50
2017-06-16T00:02:54.677Z,12.98
2017-06-16T00:05:25.067Z,13.67
2017-06-16T00:07:58.201Z,14.02
2017-06-16T00:13:00.775Z,15.50
2017-06-16T00:15:27.321Z,15.45
2017-06-16T00:17:54.585Z,15.63
2017-06-16T00:20:20.936Z,16.17
2017-06-16T00:22:48.274Z,15.33
2017-06-16T00:25:15.003Z,15.37
2017-06-16T00:27:41.446Z,15.00
2017-06-16T00:30:07.822Z,16.00
2017-06-16T00:32:34.093Z,15.10
2017-06-16T00:35:00.442Z,15.70
2017-06-16T00:37:27.710Z,15.45
2017-06-16T00:39:55.014Z,15.30
2017-06-16T00:42:21.560Z,15.50
2017-06-16T00:44:53.992Z,15.50
2017-06-16T00:47:24.054Z,15.40
2017-06-16T00:49:50.391Z,15.48
2017-06-16T00:52:17.156Z,16.37
2017-06-16T01:00:11.467Z,15.57
2017-06-16T01:02:37.798Z,15.75
2017-06-16T01:07:40.817Z,15.13
2017-06-16T01:10:07.579Z,16.23
2017-06-16T01:12:41.251Z,15.30
2017-06-16T01:21:37.188Z,15.10
2017-06-16T01:44:26.569Z,14.98
2017-06-16T01:46:52.937Z,14.55
2017-06-16T01:49:19.379Z,15.98
2017-06-16T01:51:46.579Z,15.45
2017-06-16T01:54:12.915Z,15.25
2017-06-16T01:56:40.459Z,15.27
2017-06-16T01:59:07.353Z,15.40
2017-06-16T02:01:36.563Z,15.50
2017-06-16T02:09:22.407Z,14.73
2017-06-16T02:37:54.058Z,14.70
2017-06-16T02:40:21.522Z,15.27
2017-06-16T02:45:25.661Z,15.43
2017-06-16T02:48:11.767Z,15.60
2017-06-16T02:50:39.797Z,15.27
2017-06-16T02:53:07.237Z,15.50
2017-06-16T02:55:33.856Z,15.60
2017-06-16T02:58:00.221Z,16.27
2017-06-16T03:00:26.683Z,15.75
2017-06-16T03:02:54.751Z,16.50
2017-06-16T03:05:21.165Z,15.50
2017-06-16T03:07:47.497Z,15.00
2017-06-16T03:10:14.279Z,15.20
2017-06-16T03:12:40.654Z,15.80
2017-06-16T03:15:08.634Z,15.40
2017-06-16T03:17:34.910Z,14.80
2017-06-16T03:20:01.186Z,15.45
2017-06-16T03:22:34.375Z,15.67
2017-06-16T03:25:00.642Z,15.25
2017-06-16T03:27:26.842Z,12.80
2017-06-16T03:29:53.048Z,12.82
2017-06-16T03:32:19.238Z,13.15
2017-06-16T03:34:45.450Z,12.85
2017-06-16T03:37:11.651Z,13.15
2017-06-16T03:40:19.316Z,12.30
2017-06-16T03:42:45.871Z,12.30
2017-06-16T03:45:12.434Z,12.00
2017-06-16T03:47:38.999Z,11.35
2017-06-16T03:50:05.615Z,11.80
2017-06-16T03:52:32.049Z,12.30
2017-06-16T03:54:58.662Z,10.98
2017-06-16T03:57:25.165Z,13.00
2017-06-16T03:59:52.108Z,11.63
2017-06-16T04:02:18.545Z,12.48
2017-06-16T04:04:44.980Z,11.65
2017-06-16T04:07:12.212Z,12.20
2017-06-16T04:09:38.728Z,12.60
2017-06-16T04:12:05.184Z,13.00
2017-06-16T04:14:31.668Z,11.85
2017-06-16T04:16:58.422Z,11.23
2017-06-16T04:19:24.964Z,12.20
2017-06-16T04:21:51.393Z,11.30
2017-06-16T04:24:17.977Z,12.20
2017-06-16T04:26:44.444Z,12.87
2017-06-16T04:29:10.991Z,12.73
2017-06-16T04:31:37.654Z,12.13
2017-06-16T04:34:04.092Z,10.48
2017-06-16T04:36:31.215Z,10.90
2017-06-16T04:38:57.839Z,11.20
2017-06-16T04:41:25.061Z,11.12
2017-06-16T04:43:51.571Z,11.50
2017-06-16T04:46:17.981Z,10.77
2017-06-16T04:48:44.416Z,11.60
2017-06-16T04:51:10.944Z,11.75
2017-06-16T04:53:37.390Z,12.10
2017-06-16T04:56:04.573Z,17.98
2017-06-16T04:58:31.009Z,12.50
2017-06-16T05:00:58.242Z,11.70
2017-06-16T05:03:24.754Z,12.57
2017-06-16T05:05:51.214Z,13.55
2017-06-16T05:08:17.770Z,14.27
2017-06-16T05:10:44.394Z,15.75
2017-06-16T05:13:10.884Z,17.13
2017-06-16T05:15:37.546Z,18.20
2017-06-16T05:18:04.105Z,19.02
2017-06-16T05:20:30.669Z,18.48
2017-06-16T05:23:03.129Z,18.52
2017-06-16T05:25:29.575Z,18.77
2017-06-16T05:27:56.063Z,20.00
2017-06-16T05:30:22.551Z,20.02
2017-06-16T05:32:49.021Z,20.35
2017-06-16T05:35:15.491Z,23.10
2017-06-16T05:37:41.965Z,23.50
2017-06-16T05:40:29.753Z,21.17
2017-06-16T05:42:56.261Z,22.45
2017-06-16T05:45:23.555Z,23.30
2017-06-16T05:47:50.720Z,28.03
2017-06-16T05:50:18.812Z,26.00
2017-06-16T05:52:46.097Z,27.25
2017-06-16T05:55:13.780Z,27.73
2017-06-16T05:57:40.334Z,25.80
2017-06-16T06:00:06.778Z,29.20
2017-06-16T06:02:33.968Z,31.05
2017-06-16T06:05:00.598Z,32.63
2017-06-16T06:07:27.799Z,30.33
2017-06-16T06:09:54.252Z,31.33
2017-06-16T06:12:21.028Z,32.35
2017-06-16T06:14:48.914Z,33.17
2017-06-16T06:17:17.860Z,30.50
2017-06-16T06:19:44.781Z,29.42
2017-06-16T06:22:11.648Z,29.85
2017-06-16T06:24:38.615Z,28.87
2017-06-16T06:27:05.479Z,28.30
2017-06-16T06:29:35.873Z,27.13
2017-06-16T06:32:03.669Z,26.87
2017-06-16T06:34:31.903Z,26.40
2017-06-16T06:36:59.181Z,26.80
2017-06-16T06:39:27.851Z,24.95
2017-06-16T06:41:54.956Z,25.00
2017-06-16T06:44:22.237Z,23.95
2017-06-16T06:46:49.305Z,24.40
2017-06-16T06:49:15.960Z,25.60
2017-06-16T06:51:42.520Z,23.85
2017-06-16T06:54:10.100Z,22.80
2017-06-16T06:56:36.658Z,22.10
2017-06-16T06:59:04.552Z,19.62
2017-06-16T07:01:31.822Z,19.73
2017-06-16T07:03:59.202Z,18.05
2017-06-16T07:06:27.139Z,19.02
2017-06-16T07:08:53.633Z,19.30
2017-06-16T07:11:20.899Z,17.80
2017-06-16T07:13:48.551Z,17.52
2017-06-16T07:16:16.881Z,16.73
2017-06-16T07:18:45.302Z,15.80
2017-06-16T07:21:13.605Z,14.70
2017-06-16T07:23:42.201Z,14.73
2017-06-16T07:26:09.343Z,14.55
2017-06-16T07:28:36.339Z,13.17
2017-06-16T07:31:02.967Z,12.45
2017-06-16T07:33:30.173Z,13.60
2017-06-16T07:35:58.430Z,12.10
2017-06-16T07:38:25.005Z,11.20
2017-06-16T07:40:53.426Z,11.68
2017-06-16T07:43:20.108Z,11.60
2017-06-16T07:45:46.646Z,12.60
2017-06-16T07:48:29.008Z,12.57
2017-06-16T07:50:56.129Z,12.70
2017-06-16T07:53:24.950Z,13.25
2017-06-16T07:55:52.006Z,13.60
2017-06-16T07:58:19.688Z,12.88
2017-06-16T08:00:46.666Z,12.50
2017-06-16T08:03:13.158Z,12.77
2017-06-16T08:05:40.073Z,13.00
2017-06-16T08:08:06.537Z,12.02
2017-06-16T08:10:33.031Z,10.60
2017-06-16T08:12:59.671Z,10.90
2017-06-16T08:15:26.143Z,11.65
2017-06-16T08:17:53.159Z,10.98
2017-06-16T08:20:19.841Z,10.80
2017-06-16T08:22:46.502Z,10.60
2017-06-16T08:25:12.975Z,10.70
2017-06-16T08:27:39.514Z,11.48
2017-06-16T08:30:05.977Z,11.57
2017-06-16T08:32:32.461Z,11.40
2017-06-16T08:34:58.939Z,11.05
2017-06-16T08:37:25.408Z,11.50
2017-06-16T08:39:52.004Z,11.90
2017-06-16T08:42:18.442Z,12.25
2017-06-16T08:44:45.712Z,12.27
2017-06-16T08:47:13.006Z,11.93
2017-06-16T08:49:39.564Z,14.35
2017-06-16T08:52:06.122Z,15.90
2017-06-16T08:54:33.426Z,17.00
2017-06-16T08:56:59.991Z,17.58
2017-06-16T08:59:26.516Z,18.37
2017-06-16T09:01:53.074Z,16.37
2017-06-16T09:04:19.620Z,15.80
2017-06-16T09:06:46.823Z,13.70
2017-06-16T09:09:13.263Z,12.93
2017-06-16T09:11:40.127Z,12.00
2017-06-16T09:14:06.533Z,12.40
2017-06-16T09:16:33.327Z,11.80
2017-06-16T09:19:00.583Z,10.30
2017-06-16T09:21:27.047Z,10.57
2017-06-16T09:23:53.632Z,10.52
2017-06-16T09:26:20.191Z,9.73
2017-06-16T09:28:46.751Z,10.65
2017-06-16T09:31:13.309Z,10.85
2017-06-16T09:33:39.746Z,10.07
2017-06-16T09:36:07.044Z,9.65
2017-06-16T09:38:33.482Z,10.13
2017-06-16T09:41:00.768Z,9.40
2017-06-16T09:43:27.384Z,9.48
2017-06-16T09:45:53.820Z,11.00
2017-06-16T09:48:21.164Z,10.80
2017-06-16T09:50:47.592Z,11.15
2017-06-16T09:53:14.072Z,11.37
2017-06-16T09:55:40.552Z,8.65
2017-06-16T09:58:07.007Z,9.20
2017-06-16T10:00:33.461Z,9.88
2017-06-16T10:03:00.053Z,9.80
2017-06-16T10:05:26.528Z,10.35
2017-06-16T10:07:52.972Z,11.40
2017-06-16T10:10:19.404Z,11.93
2017-06-16T10:12:45.977Z,13.80
2017-06-16T10:15:12.485Z,12.85
2017-06-16T10:17:39.105Z,13.68
2017-06-16T10:20:05.575Z,13.70
2017-06-16T10:22:32.466Z,14.70
2017-06-16T10:24:58.935Z,14.50
2017-06-16T10:27:25.358Z,15.35
2017-06-16T10:29:52.655Z,15.20
2017-06-16T10:32:19.199Z,15.60
2017-06-16T10:34:45.679Z,16.10
2017-06-16T10:37:12.296Z,15.97
2017-06-16T10:39:38.803Z,15.57
2017-06-16T10:42:05.350Z,14.20
2017-06-16T10:44:32.003Z,14.80
2017-06-16T10:46:58.728Z,15.10
2017-06-16T10:49:25.189Z,14.05
2017-06-16T10:51:51.865Z,13.57
2017-06-16T10:54:19.070Z,14.30
2017-06-16T10:56:45.525Z,14.50
2017-06-16T10:59:12.409Z,14.15
2017-06-16T11:01:39.033Z,12.90
2017-06-16T11:04:05.499Z,12.50
2017-06-16T11:06:31.963Z,11.77
2017-06-16T11:08:58.514Z,12.30
2017-06-16T11:11:25.175Z,11.25
2017-06-16T11:13:52.493Z,11.05
2017-06-16T11:16:19.076Z,9.70
2017-06-16T11:18:45.532Z,9.38
2017-06-16T11:21:12.292Z,7.82
2017-06-16T11:23:38.720Z,7.37
2017-06-16T11:26:05.178Z,7.78
2017-06-16T11:28:31.756Z,6.63
2017-06-16T11:31:13.146Z,8.02
2017-06-16T11:33:39.747Z,7.22
2017-06-16T11:36:06.406Z,6.60
2017-06-16T11:38:32.962Z,6.68
2017-06-16T11:40:59.407Z,6.10
2017-06-16T11:43:26.999Z,6.65
2017-06-16T11:45:53.452Z,6.90
2017-06-16T11:48:20.007Z,7.35
2017-06-16T11:50:46.778Z,6.28
2017-06-16T11:53:13.398Z,5.93
2017-06-16T11:55:40.827Z,6.30
2017-06-16T11:58:07.523Z,5.55
2017-06-16T12:00:34.339Z,5.30
2017-06-16T12:03:00.804Z,5.80
2017-06-16T12:05:27.544Z,5.50
2017-06-16T12:07:54.985Z,5.20
2017-06-16T12:10:22.011Z,5.90
2017-06-16T12:12:49.069Z,5.70
2017-06-16T12:15:16.555Z,5.60
2017-06-16T12:17:45.039Z,6.50
2017-06-16T12:20:12.275Z,5.00
2017-06-16T12:22:38.888Z,5.75
2017-06-16T12:25:05.451Z,5.30
2017-06-16T12:27:31.986Z,5.05
2017-06-16T12:29:59.202Z,4.57
2017-06-16T12:32:25.702Z,5.10
2017-06-16T12:34:52.190Z,4.57
2017-06-16T12:37:18.875Z,4.60
2017-06-16T12:39:45.364Z,4.18
2017-06-16T12:42:11.975Z,3.35
2017-06-16T12:44:39.019Z,3.20
2017-06-16T12:47:06.394Z,3.45
2017-06-16T12:49:32.858Z,3.50
2017-06-16T12:52:00.066Z,2.90
2017-06-16T12:54:26.693Z,3.10
2017-06-16T12:56:53.862Z,3.25
2017-06-16T12:59:21.053Z,3.30
2017-06-16T13:01:47.557Z,3.30
2017-06-16T13:04:14.098Z,3.55
2017-06-16T13:06:40.623Z,3.58
2017-06-16T13:09:07.055Z,3.40
2017-06-16T13:11:33.546Z,3.90
2017-06-16T13:14:00.046Z,4.00
2017-06-16T13:16:26.552Z,3.67
2017-06-16T13:18:53.017Z,3.80
2017-06-16T13:21:19.472Z,4.00
2017-06-16T13:23:45.956Z,3.50
2017-06-16T13:26:12.481Z,3.75
2017-06-16T13:28:38.918Z,3.60
2017-06-16T13:31:06.275Z,3.60
2017-06-16T13:33:32.766Z,3.37
2017-06-16T13:35:59.490Z,3.03
2017-06-16T13:38:26.091Z,3.20
2017-06-16T13:40:52.646Z,3.92
2017-06-16T13:43:19.410Z,3.50
2017-06-16T13:45:45.969Z,3.60
2017-06-16T13:48:12.537Z,3.62
2017-06-16T13:50:39.001Z,3.40
2017-06-16T13:53:06.119Z,3.40
2017-06-16T13:55:32.713Z,3.80
2017-06-16T13:57:59.241Z,3.35
2017-06-16T14:00:25.691Z,3.90
2017-06-16T14:02:52.402Z,3.53
2017-06-16T14:05:18.853Z,4.70
2017-06-16T14:07:45.304Z,4.78
2017-06-16T14:10:12.866Z,5.70
2017-06-16T14:12:40.043Z,5.70
2017-06-16T14:15:07.350Z,6.00
2017-06-16T14:17:33.812Z,5.60
2017-06-16T14:20:00.446Z,5.90
2017-06-16T14:22:26.918Z,6.05
2017-06-16T14:24:53.413Z,5.90
2017-06-16T14:27:20.018Z,5.83
2017-06-16T14:29:46.577Z,6.43
2017-06-16T14:32:13.088Z,6.80
2017-06-16T14:34:39.888Z,5.85
2017-06-16T14:37:07.273Z,6.10
2017-06-16T14:39:33.833Z,6.10
2017-06-16T14:42:00.303Z,6.00
2017-06-16T14:44:26.847Z,5.95
2017-06-16T14:46:54.838Z,6.00
2017-06-16T14:49:22.112Z,6.75
2017-06-16T14:51:48.980Z,6.22
2017-06-16T14:54:17.864Z,6.00
2017-06-16T14:56:45.240Z,6.50
2017-06-16T14:59:11.929Z,6.33
2017-06-16T15:01:38.550Z,6.50
2017-06-16T15:04:05.326Z,6.90
2017-06-16T15:06:32.629Z,6.70
2017-06-16T15:08:59.562Z,5.90
2017-06-16T15:11:26.150Z,6.50
2017-06-16T15:13:52.707Z,5.35
2017-06-16T15:16:19.675Z,4.85
2017-06-16T15:18:46.541Z,5.30
2017-06-16T15:21:19.267Z,4.60
2017-06-16T15:23:46.019Z,4.12
2017-06-16T15:26:12.870Z,4.00
2017-06-16T15:28:39.355Z,4.40
2017-06-16T15:31:05.815Z,4.43
2017-06-16T15:33:33.412Z,4.37
2017-06-16T15:36:00.023Z,4.60
2017-06-16T15:38:26.532Z,4.20
2017-06-16T15:40:53.050Z,4.87
2017-06-16T15:43:19.578Z,5.20
2017-06-16T15:45:46.108Z,4.63
2017-06-16T15:48:12.708Z,4.87
2017-06-16T15:50:39.208Z,4.80
2017-06-16T15:53:05.858Z,4.93
2017-06-16T15:55:32.614Z,5.40
2017-06-16T15:57:59.210Z,4.47
2017-06-16T16:00:26.434Z,4.05
2017-06-16T16:02:52.987Z,4.50
2017-06-16T16:05:19.662Z,4.00
2017-06-16T16:07:46.914Z,3.90
2017-06-16T16:10:13.682Z,4.27
2017-06-16T16:12:40.516Z,4.20
2017-06-16T16:15:06.985Z,4.12
2017-06-16T16:17:33.635Z,3.95
2017-06-16T16:20:00.839Z,4.00
2017-06-16T16:22:27.317Z,4.32
2017-06-16T16:24:54.009Z,4.43
2017-06-16T16:27:21.069Z,4.47
2017-06-16T16:29:47.992Z,4.50
2017-06-16T16:32:14.473Z,4.45
2017-06-16T16:34:42.122Z,4.90
2017-06-16T16:37:09.072Z,5.00
2017-06-16T16:39:36.854Z,5.10
2017-06-16T16:42:03.436Z,5.20
2017-06-16T16:44:30.243Z,5.12
2017-06-16T16:46:58.806Z,5.07
2017-06-16T16:49:25.554Z,5.50
2017-06-16T16:51:53.777Z,5.30
2017-06-16T16:54:20.631Z,5.60
2017-06-16T16:56:47.100Z,5.10
2017-06-16T16:59:13.556Z,5.30
2017-06-16T17:01:40.302Z,5.10
2017-06-16T17:04:06.803Z,4.80
2017-06-16T17:06:33.317Z,4.50
2017-06-16T17:09:00.129Z,4.28
2017-06-16T17:11:27.458Z,3.75
2017-06-16T17:13:53.906Z,4.05
2017-06-16T17:16:21.073Z,3.22
2017-06-16T17:18:48.465Z,3.10
2017-06-16T17:21:16.289Z,3.20
2017-06-16T17:23:42.909Z,3.30
2017-06-16T17:26:09.809Z,3.50
2017-06-16T17:28:36.317Z,3.40
2017-06-16T17:31:03.608Z,3.20
2017-06-16T17:33:30.167Z,3.00
2017-06-16T17:35:56.829Z,2.90
2017-06-16T17:38:25.132Z,2.60
2017-06-16T17:40:51.719Z,2.80
2017-06-16T17:43:18.240Z,3.00
2017-06-16T17:45:44.982Z,2.97
2017-06-16T17:48:12.522Z,2.85
2017-06-16T17:50:39.635Z,3.00
2017-06-16T17:53:06.812Z,3.20
2017-06-16T17:55:33.506Z,3.00
2017-06-16T17:57:59.986Z,3.00
2017-06-16T18:00:26.545Z,2.90
2017-06-16T18:02:53.065Z,3.13
2017-06-16T18:05:19.805Z,3.00
2017-06-16T18:07:46.764Z,3.20
2017-06-16T18:10:14.435Z,3.37
2017-06-16T18:12:41.291Z,3.40
2017-06-16T18:15:08.494Z,3.40
2017-06-16T18:17:36.408Z,3.22
2017-06-16T18:20:02.939Z,3.80
2017-06-16T18:22:30.185Z,3.90
2017-06-16T18:24:56.902Z,3.60
2017-06-16T18:27:26.160Z,3.67
2017-06-16T18:29:52.640Z,3.50
2017-06-16T18:32:19.472Z,3.80
2017-06-16T18:34:46.632Z,3.20
2017-06-16T18:37:13.134Z,4.00
2017-06-16T18:39:40.754Z,3.83
2017-06-16T18:42:07.523Z,4.03
2017-06-16T18:44:34.692Z,4.03
2017-06-16T18:47:02.362Z,3.70
2017-06-16T18:49:29.605Z,3.97
2017-06-16T18:51:56.870Z,4.00
2017-06-16T18:54:23.572Z,3.50
2017-06-16T18:56:50.628Z,3.72
2017-06-16T18:59:18.429Z,4.20
2017-06-16T19:01:45.402Z,3.80
2017-06-16T19:04:13.145Z,3.83
2017-06-16T19:06:40.669Z,3.80
2017-06-16T19:09:08.153Z,3.75
2017-06-16T19:11:34.801Z,4.10
2017-06-16T19:14:01.496Z,3.70
2017-06-16T19:16:28.969Z,4.20
2017-06-16T19:18:55.805Z,4.80
2017-06-16T19:21:22.954Z,4.47
2017-06-16T19:23:49.514Z,4.68
2017-06-16T19:26:18.203Z,5.00
2017-06-16T19:28:45.007Z,4.47
2017-06-16T19:31:12.313Z,4.70
2017-06-16T19:33:39.524Z,4.50
2017-06-16T19:36:07.084Z,4.78
2017-06-16T19:38:35.423Z,4.50
2017-06-16T19:41:06.189Z,4.43
2017-06-16T19:43:35.097Z,4.50
2017-06-16T19:46:05.250Z,4.05
2017-06-16T19:48:35.863Z,4.30
2017-06-16T19:51:03.164Z,3.90
2017-06-16T19:53:29.715Z,3.80
2017-06-16T19:55:56.682Z,4.28
2017-06-16T19:58:24.591Z,4.18
2017-06-16T20:00:51.436Z,4.40
2017-06-16T20:03:18.992Z,4.20
2017-06-16T20:05:47.311Z,4.20
2017-06-16T20:08:13.874Z,4.28
2017-06-16T20:10:41.580Z,4.25
2017-06-16T20:13:09.241Z,4.28
2017-06-16T20:15:36.209Z,4.45
2017-06-16T20:18:03.287Z,4.40
2017-06-16T20:20:31.168Z,4.00
2017-06-16T20:22:58.775Z,4.03
2017-06-16T20:25:29.794Z,3.80
2017-06-16T20:27:57.146Z,3.50
2017-06-16T20:30:24.333Z,3.67
2017-06-16T20:32:50.558Z,4.10
2017-06-16T20:35:16.815Z,4.30
2017-06-16T20:37:43.285Z,3.70
2017-06-16T20:43:04.666Z,3.80
2017-06-16T20:45:32.334Z,3.37
2017-06-16T20:47:58.650Z,3.53
2017-06-16T20:50:31.377Z,3.60
2017-06-16T20:52:58.512Z,3.22
2017-06-16T20:55:25.930Z,3.45
2017-06-16T20:57:52.214Z,3.30
2017-06-16T21:00:18.658Z,3.30
2017-06-16T21:02:45.187Z,3.30
2017-06-16T21:05:12.067Z,3.20
2017-06-16T21:07:38.351Z,3.60
2017-06-16T21:10:05.732Z,3.50
2017-06-16T21:12:32.041Z,3.30
2017-06-16T21:14:59.563Z,3.50
2017-06-16T21:17:25.833Z,3.40
2017-06-16T21:19:54.913Z,3.00
2017-06-16T21:22:27.274Z,3.20
2017-06-16T21:24:53.713Z,3.10
2017-06-16T21:27:29.633Z,3.35
2017-06-16T21:29:55.882Z,2.95
2017-06-16T21:32:22.133Z,3.10
2017-06-16T21:34:48.534Z,2.93
2017-06-16T21:37:15.425Z,3.30
2017-06-16T21:39:41.668Z,3.00
2017-06-16T21:42:07.900Z,3.35
2017-06-16T21:44:34.354Z,3.22
2017-06-16T21:47:00.648Z,3.10
2017-06-16T21:49:27.093Z,3.00
2017-06-16T21:51:53.385Z,3.30
2017-06-16T21:54:20.381Z,3.30
2017-06-16T21:56:46.617Z,3.20
2017-06-16T21:59:12.943Z,3.30
2017-06-16T22:01:39.182Z,3.55
2017-06-16T22:04:05.411Z,3.40
2017-06-16T22:06:31.609Z,3.80
2017-06-16T22:08:57.841Z,3.50
2017-06-16T22:11:24.071Z,3.28
2017-06-16T22:13:50.339Z,3.40
2017-06-16T22:16:16.574Z,3.70
2017-06-16T22:18:42.784Z,3.30
2017-06-16T22:21:09.001Z,3.30
2017-06-16T22:23:35.254Z,3.30
2017-06-16T22:26:01.475Z,3.40
2017-06-16T22:28:27.734Z,3.20
2017-06-16T22:30:54.030Z,3.30
2017-06-16T22:33:21.022Z,3.35
2017-06-16T22:35:47.294Z,3.20
2017-06-16T22:38:13.550Z,3.30
2017-06-16T22:40:40.542Z,3.17
2017-06-16T22:43:06.784Z,3.47
2017-06-16T22:45:33.017Z,3.08
2017-06-16T22:47:59.266Z,3.30
2017-06-16T22:50:25.481Z,3.17
2017-06-16T22:52:51.663Z,3.67
2017-06-16T22:55:17.859Z,3.08
2017-06-16T22:57:44.065Z,3.20
2017-06-16T23:00:10.287Z,3.20
2017-06-16T23:02:36.515Z,3.00
2017-06-16T23:05:02.746Z,3.20
2017-06-16T23:07:28.955Z,3.10
2017-06-16T23:09:55.158Z,2.97
2017-06-16T23:12:21.358Z,2.80
2017-06-16T23:14:48.280Z,2.80
2017-06-16T23:17:14.494Z,3.12
2017-06-16T23:19:40.747Z,2.60
2017-06-16T23:22:06.963Z,2.90
2017-06-16T23:24:33.162Z,2.80
2017-06-16T23:26:59.357Z,2.80
2017-06-16T23:29:25.533Z,2.70
2017-06-16T23:31:51.753Z,2.97
2017-06-16T23:34:17.969Z,3.30
2017-06-16T23:36:44.189Z,2.90
2017-06-16T23:39:10.401Z,2.90
2017-06-16T23:41:36.641Z,3.40
2017-06-16T23:44:02.887Z,3.00
2017-06-16T23:46:29.097Z,2.80
2017-06-16T23:48:55.289Z,2.90
2017-06-16T23:51:21.480Z,2.90
2017-06-16T23:53:47.671Z,3.05
2017-06-16T23:56:13.876Z,3.12
2017-06-16T23:58:40.294Z,3.10
